sensor_id;sensor_type;location;lat;lon;timestamp;pressure;altitude;pressure_sealevel;temperature;humidity
47054;BME280;32811;52.382;5.270;2022-12-20T00:01:20;101261.16;;;7.84;100.00
47054;BME280;32811;52.382;5.270;2022-12-20T00:03:49;101265.31;;;7.79;100.00
47054;BME280;32811;52.382;5.270;2022-12-20T00:06:17;101247.41;;;7.83;100.00
47054;BME280;32811;52.382;5.270;2022-12-20T00:08:45;101253.34;;;7.79;100.00
47054;BME280;32811;52.382;5.270;2022-12-20T00:11:12;101238.19;;;7.92;100.00
47054;BME280;32811;52.382;5.270;2022-12-20T00:13:39;101235.66;;;7.95;100.00
47054;BME280;32811;52.382;5.270;2022-12-20T00:18:35;101206.00;;;7.68;100.00
47054;BME280;32811;52.382;5.270;2022-12-20T00:21:02;101252.75;;;7.91;100.00
47054;BME280;32811;52.382;5.270;2022-12-20T00:23:30;101251.00;;;7.90;100.00
47054;BME280;32811;52.382;5.270;2022-12-20T00:26:04;101242.56;;;7.96;100.00
47054;BME280;32811;52.382;5.270;2022-12-20T00:28:33;101235.50;;;7.87;100.00
47054;BME280;32811;52.382;5.270;2022-12-20T00:31:00;101245.75;;;7.84;100.00
47054;BME280;32811;52.382;5.270;2022-12-20T00:33:27;101246.50;;;7.81;100.00
47054;BME280;32811;52.382;5.270;2022-12-20T00:35:55;101240.69;;;7.88;100.00
47054;BME280;32811;52.382;5.270;2022-12-20T00:38:25;101221.72;;;7.82;100.00
47054;BME280;32811;52.382;5.270;2022-12-20T00:41:01;101209.66;;;7.81;100.00
47054;BME280;32811;52.382;5.270;2022-12-20T00:43:29;101223.47;;;7.84;100.00
47054;BME280;32811;52.382;5.270;2022-12-20T00:45:56;101233.81;;;7.87;100.00
47054;BME280;32811;52.382;5.270;2022-12-20T00:48:24;101234.56;;;7.83;100.00
47054;BME280;32811;52.382;5.270;2022-12-20T00:50:51;101218.44;;;7.89;100.00
47054;BME280;32811;52.382;5.270;2022-12-20T00:53:18;101212.25;;;7.81;100.00
47054;BME280;32811;52.382;5.270;2022-12-20T00:55:51;101207.63;;;7.64;100.00
47054;BME280;32811;52.382;5.270;2022-12-20T00:58:18;101233.72;;;7.83;100.00
47054;BME280;32811;52.382;5.270;2022-12-20T01:00:45;101224.03;;;7.71;100.00
47054;BME280;32811;52.382;5.270;2022-12-20T01:03:21;101244.84;;;7.82;100.00
47054;BME280;32811;52.382;5.270;2022-12-20T01:05:50;101237.22;;;7.86;100.00
47054;BME280;32811;52.382;5.270;2022-12-20T01:08:18;101233.09;;;7.95;100.00
47054;BME280;32811;52.382;5.270;2022-12-20T01:10:45;101212.44;;;7.88;100.00
47054;BME280;32811;52.382;5.270;2022-12-20T01:13:12;101225.63;;;8.05;100.00
47054;BME280;32811;52.382;5.270;2022-12-20T01:15:39;101201.53;;;8.00;100.00
47054;BME280;32811;52.382;5.270;2022-12-20T01:18:06;101210.31;;;8.11;100.00
47054;BME280;32811;52.382;5.270;2022-12-20T01:20:33;101197.47;;;8.11;100.00
47054;BME280;32811;52.382;5.270;2022-12-20T01:22:59;101211.34;;;8.20;100.00
47054;BME280;32811;52.382;5.270;2022-12-20T01:25:27;101211.28;;;8.17;100.00
47054;BME280;32811;52.382;5.270;2022-12-20T01:27:53;101204.69;;;8.29;100.00
47054;BME280;32811;52.382;5.270;2022-12-20T01:30:20;101190.00;;;8.24;100.00
47054;BME280;32811;52.382;5.270;2022-12-20T01:32:47;101195.50;;;8.41;100.00
47054;BME280;32811;52.382;5.270;2022-12-20T01:35:14;101199.78;;;8.40;100.00
47054;BME280;32811;52.382;5.270;2022-12-20T01:37:41;101195.22;;;8.27;100.00
47054;BME280;32811;52.382;5.270;2022-12-20T01:40:08;101191.69;;;8.23;100.00
47054;BME280;32811;52.382;5.270;2022-12-20T01:42:36;101206.22;;;8.20;100.00
47054;BME280;32811;52.382;5.270;2022-12-20T01:45:07;101194.03;;;8.13;100.00
47054;BME280;32811;52.382;5.270;2022-12-20T01:47:35;101182.97;;;8.15;100.00
47054;BME280;32811;52.382;5.270;2022-12-20T01:50:04;101188.13;;;8.17;100.00
47054;BME280;32811;52.382;5.270;2022-12-20T01:52:35;101179.59;;;8.18;100.00
47054;BME280;32811;52.382;5.270;2022-12-20T01:55:07;101192.28;;;8.08;100.00
47054;BME280;32811;52.382;5.270;2022-12-20T01:57:50;101191.53;;;8.14;100.00
47054;BME280;32811;52.382;5.270;2022-12-20T02:00:18;101198.41;;;8.17;100.00
47054;BME280;32811;52.382;5.270;2022-12-20T02:02:47;101182.91;;;8.10;100.00
47054;BME280;32811;52.382;5.270;2022-12-20T02:05:18;101170.94;;;8.14;100.00
47054;BME280;32811;52.382;5.270;2022-12-20T02:07:48;101170.00;;;8.09;100.00
47054;BME280;32811;52.382;5.270;2022-12-20T02:10:16;101171.66;;;8.07;100.00
47054;BME280;32811;52.382;5.270;2022-12-20T02:12:45;101154.53;;;8.07;100.00
47054;BME280;32811;52.382;5.270;2022-12-20T02:20:45;101166.63;;;8.11;100.00
47054;BME280;32811;52.382;5.270;2022-12-20T02:29:36;101156.97;;;8.01;100.00
47054;BME280;32811;52.382;5.270;2022-12-20T02:32:13;101148.25;;;7.93;100.00
47054;BME280;32811;52.382;5.270;2022-12-20T02:34:42;101163.56;;;7.87;100.00
47054;BME280;32811;52.382;5.270;2022-12-20T02:37:10;101148.00;;;7.81;100.00
47054;BME280;32811;52.382;5.270;2022-12-20T02:39:39;101141.19;;;7.83;100.00
47054;BME280;32811;52.382;5.270;2022-12-20T02:42:09;101147.19;;;7.83;100.00
47054;BME280;32811;52.382;5.270;2022-12-20T02:44:40;101155.63;;;7.76;100.00
47054;BME280;32811;52.382;5.270;2022-12-20T02:47:33;101154.81;;;7.79;100.00
47054;BME280;32811;52.382;5.270;2022-12-20T02:50:03;101150.53;;;7.78;100.00
47054;BME280;32811;52.382;5.270;2022-12-20T02:52:32;101152.44;;;7.88;100.00
47054;BME280;32811;52.382;5.270;2022-12-20T02:54:59;101144.94;;;7.97;100.00
47054;BME280;32811;52.382;5.270;2022-12-20T03:02:34;101144.63;;;7.82;100.00
47054;BME280;32811;52.382;5.270;2022-12-20T03:05:21;101149.84;;;7.88;100.00
47054;BME280;32811;52.382;5.270;2022-12-20T03:07:49;101141.22;;;7.84;100.00
47054;BME280;32811;52.382;5.270;2022-12-20T03:10:17;101145.53;;;7.85;100.00
47054;BME280;32811;52.382;5.270;2022-12-20T03:12:43;101153.28;;;7.87;100.00
47054;BME280;32811;52.382;5.270;2022-12-20T03:15:10;101146.47;;;7.89;100.00
47054;BME280;32811;52.382;5.270;2022-12-20T03:17:37;101130.88;;;7.80;100.00
47054;BME280;32811;52.382;5.270;2022-12-20T03:20:05;101147.28;;;7.88;100.00
47054;BME280;32811;52.382;5.270;2022-12-20T03:22:33;101151.59;;;7.89;100.00
47054;BME280;32811;52.382;5.270;2022-12-20T03:25:00;101155.91;;;7.90;100.00
47054;BME280;32811;52.382;5.270;2022-12-20T03:27:27;101148.31;;;7.96;100.00
47054;BME280;32811;52.382;5.270;2022-12-20T03:29:54;101144.94;;;7.99;100.00
47054;BME280;32811;52.382;5.270;2022-12-20T03:32:21;101139.88;;;8.02;100.00
47054;BME280;32811;52.382;5.270;2022-12-20T03:34:49;101151.81;;;8.00;100.00
47054;BME280;32811;52.382;5.270;2022-12-20T03:37:16;101148.31;;;7.96;100.00
47054;BME280;32811;52.382;5.270;2022-12-20T03:39:42;101133.94;;;8.06;100.00
47054;BME280;32811;52.382;5.270;2022-12-20T03:42:09;101140.06;;;8.13;100.00
47054;BME280;32811;52.382;5.270;2022-12-20T03:44:35;101131.66;;;8.20;100.00
47054;BME280;32811;52.382;5.270;2022-12-20T03:47:03;101132.91;;;8.40;100.00
47054;BME280;32811;52.382;5.270;2022-12-20T03:49:30;101129.38;;;8.35;100.00
47054;BME280;32811;52.382;5.270;2022-12-20T03:51:57;101120.66;;;8.30;100.00
47054;BME280;32811;52.382;5.270;2022-12-20T03:54:24;101118.91;;;8.27;100.00
47054;BME280;32811;52.382;5.270;2022-12-20T03:56:51;101108.59;;;8.24;100.00
47054;BME280;32811;52.382;5.270;2022-12-20T03:59:18;101116.38;;;8.29;100.00
47054;BME280;32811;52.382;5.270;2022-12-20T04:01:44;101123.41;;;8.39;100.00
47054;BME280;32811;52.382;5.270;2022-12-20T04:04:13;101122.53;;;8.39;100.00
47054;BME280;32811;52.382;5.270;2022-12-20T04:06:40;101113.28;;;8.45;100.00
47054;BME280;32811;52.382;5.270;2022-12-20T04:09:07;101121.69;;;8.38;100.00
47054;BME280;32811;52.382;5.270;2022-12-20T04:11:33;101121.88;;;8.47;100.00
47054;BME280;32811;52.382;5.270;2022-12-20T04:14:00;101112.47;;;8.49;100.00
47054;BME280;32811;52.382;5.270;2022-12-20T04:16:28;101104.81;;;8.51;100.00
47054;BME280;32811;52.382;5.270;2022-12-20T04:18:56;101094.50;;;8.52;100.00
47054;BME280;32811;52.382;5.270;2022-12-20T04:21:29;101106.53;;;8.52;100.00
47054;BME280;32811;52.382;5.270;2022-12-20T04:23:57;101104.78;;;8.49;100.00
47054;BME280;32811;52.382;5.270;2022-12-20T04:26:24;101091.78;;;8.42;100.00
47054;BME280;32811;52.382;5.270;2022-12-20T04:28:51;101089.91;;;8.35;100.00
47054;BME280;32811;52.382;5.270;2022-12-20T04:31:18;101085.56;;;8.32;100.00
47054;BME280;32811;52.382;5.270;2022-12-20T04:33:50;101089.78;;;8.27;100.00
47054;BME280;32811;52.382;5.270;2022-12-20T04:36:16;101112.19;;;8.34;100.00
47054;BME280;32811;52.382;5.270;2022-12-20T04:38:45;101080.38;;;8.29;100.00
47054;BME280;32811;52.382;5.270;2022-12-20T04:41:11;101093.16;;;8.26;100.00
47054;BME280;32811;52.382;5.270;2022-12-20T04:43:53;101082.09;;;8.30;100.00
47054;BME280;32811;52.382;5.270;2022-12-20T04:46:21;101101.06;;;8.35;100.00
47054;BME280;32811;52.382;5.270;2022-12-20T04:48:49;101079.28;;;8.16;100.00
47054;BME280;32811;52.382;5.270;2022-12-20T04:51:25;101088.13;;;8.30;100.00
47054;BME280;32811;52.382;5.270;2022-12-20T04:53:54;101098.41;;;8.32;100.00
47054;BME280;32811;52.382;5.270;2022-12-20T04:56:26;101082.41;;;8.45;100.00
47054;BME280;32811;52.382;5.270;2022-12-20T04:58:55;101078.22;;;8.52;100.00
47054;BME280;32811;52.382;5.270;2022-12-20T05:01:22;101081.69;;;8.54;100.00
47054;BME280;32811;52.382;5.270;2022-12-20T05:03:49;101097.09;;;8.51;100.00
47054;BME280;32811;52.382;5.270;2022-12-20T05:06:16;101069.59;;;8.50;100.00
47054;BME280;32811;52.382;5.270;2022-12-20T05:08:44;101078.22;;;8.52;100.00
47054;BME280;32811;52.382;5.270;2022-12-20T05:11:11;101079.38;;;8.69;100.00
47054;BME280;32811;52.382;5.270;2022-12-20T05:13:37;101081.00;;;8.64;100.00
47054;BME280;32811;52.382;5.270;2022-12-20T05:16:05;101077.66;;;8.70;100.00
47054;BME280;32811;52.382;5.270;2022-12-20T05:18:32;101069.06;;;8.69;100.00
47054;BME280;32811;52.382;5.270;2022-12-20T05:21:00;101066.56;;;8.74;100.00
47054;BME280;32811;52.382;5.270;2022-12-20T05:23:46;101056.19;;;8.68;100.00
47054;BME280;32811;52.382;5.270;2022-12-20T05:26:34;101054.59;;;8.76;100.00
47054;BME280;32811;52.382;5.270;2022-12-20T05:29:02;101062.31;;;8.76;100.00
47054;BME280;32811;52.382;5.270;2022-12-20T05:31:30;101050.22;;;8.69;100.00
47054;BME280;32811;52.382;5.270;2022-12-20T05:33:57;101058.00;;;8.75;100.00
47054;BME280;32811;52.382;5.270;2022-12-20T05:36:24;101056.22;;;8.69;100.00
47054;BME280;32811;52.382;5.270;2022-12-20T05:38:51;101049.34;;;8.70;100.00
47054;BME280;32811;52.382;5.270;2022-12-20T05:41:27;101040.69;;;8.65;100.00
47054;BME280;32811;52.382;5.270;2022-12-20T05:43:54;101037.41;;;8.75;100.00
47054;BME280;32811;52.382;5.270;2022-12-20T05:46:21;101044.16;;;8.67;100.00
47054;BME280;32811;52.382;5.270;2022-12-20T05:48:48;101038.25;;;8.74;100.00
47054;BME280;32811;52.382;5.270;2022-12-20T05:51:14;101013.44;;;8.79;100.00
47054;BME280;32811;52.382;5.270;2022-12-20T05:53:41;101017.66;;;8.71;100.00
47054;BME280;32811;52.382;5.270;2022-12-20T05:56:08;101024.47;;;8.70;100.00
47054;BME280;32811;52.382;5.270;2022-12-20T05:58:35;101019.28;;;8.67;100.00
47054;BME280;32811;52.382;5.270;2022-12-20T06:01:04;101026.19;;;8.70;100.00
47054;BME280;32811;52.382;5.270;2022-12-20T06:03:31;101027.84;;;8.65;100.00
47054;BME280;32811;52.382;5.270;2022-12-20T06:05:58;101015.78;;;8.64;100.00
47054;BME280;32811;52.382;5.270;2022-12-20T06:08:25;101015.06;;;8.72;100.00
47054;BME280;32811;52.382;5.270;2022-12-20T06:10:52;101018.59;;;8.79;100.00
47054;BME280;32811;52.382;5.270;2022-12-20T06:13:19;101021.13;;;8.76;100.00
47054;BME280;32811;52.382;5.270;2022-12-20T06:15:46;101016.75;;;8.69;100.00
47054;BME280;32811;52.382;5.270;2022-12-20T06:18:13;101015.78;;;8.64;100.00
47054;BME280;32811;52.382;5.270;2022-12-20T06:20:40;101046.75;;;8.68;100.00
47054;BME280;32811;52.382;5.270;2022-12-20T06:23:07;101032.19;;;8.70;100.00
47054;BME280;32811;52.382;5.270;2022-12-20T06:25:35;101026.97;;;8.66;100.00
47054;BME280;32811;52.382;5.270;2022-12-20T06:28:03;101020.16;;;8.66;100.00
47054;BME280;32811;52.382;5.270;2022-12-20T06:30:30;101025.28;;;8.66;100.00
47054;BME280;32811;52.382;5.270;2022-12-20T06:33:00;101031.22;;;8.64;100.00
47054;BME280;32811;52.382;5.270;2022-12-20T06:35:28;101026.25;;;8.73;100.00
47054;BME280;32811;52.382;5.270;2022-12-20T06:37:55;101022.78;;;8.71;100.00
47054;BME280;32811;52.382;5.270;2022-12-20T06:40:22;101034.78;;;8.72;100.00
47054;BME280;32811;52.382;5.270;2022-12-20T06:42:49;101027.97;;;8.74;100.00
47054;BME280;32811;52.382;5.270;2022-12-20T06:45:16;101021.91;;;8.69;100.00
47054;BME280;32811;52.382;5.270;2022-12-20T06:47:42;101009.84;;;8.68;100.00
47054;BME280;32811;52.382;5.270;2022-12-20T06:50:10;100998.63;;;8.63;100.00
47054;BME280;32811;52.382;5.270;2022-12-20T06:52:36;101013.22;;;8.62;100.00
47054;BME280;32811;52.382;5.270;2022-12-20T06:55:04;101016.84;;;8.77;100.00
47054;BME280;32811;52.382;5.270;2022-12-20T06:57:32;101014.22;;;8.72;100.00
47054;BME280;32811;52.382;5.270;2022-12-20T06:59:58;101012.44;;;8.68;100.00
47054;BME280;32811;52.382;5.270;2022-12-20T07:02:26;101022.69;;;8.65;100.00
47054;BME280;32811;52.382;5.270;2022-12-20T07:04:54;101011.53;;;8.66;100.00
47054;BME280;32811;52.382;5.270;2022-12-20T07:07:21;100985.19;;;8.82;100.00
47054;BME280;32811;52.382;5.270;2022-12-20T07:09:48;101016.13;;;8.85;100.00
47054;BME280;32811;52.382;5.270;2022-12-20T07:12:14;101010.84;;;8.76;100.00
47054;BME280;32811;52.382;5.270;2022-12-20T07:14:41;101011.75;;;8.81;100.00
47054;BME280;32811;52.382;5.270;2022-12-20T07:17:07;101009.91;;;8.71;100.00
47054;BME280;32811;52.382;5.270;2022-12-20T07:19:35;101005.72;;;8.79;100.00
47054;BME280;32811;52.382;5.270;2022-12-20T07:22:03;100986.53;;;8.57;100.00
47054;BME280;32811;52.382;5.270;2022-12-20T07:24:30;100996.28;;;8.78;100.00
47054;BME280;32811;52.382;5.270;2022-12-20T07:26:57;100998.03;;;8.81;100.00
47054;BME280;32811;52.382;5.270;2022-12-20T07:29:24;101010.16;;;8.88;100.00
47054;BME280;32811;52.382;5.270;2022-12-20T07:31:51;101012.69;;;8.85;100.00
47054;BME280;32811;52.382;5.270;2022-12-20T07:34:18;101007.50;;;8.83;100.00
47054;BME280;32811;52.382;5.270;2022-12-20T07:36:46;101007.56;;;8.86;100.00
47054;BME280;32811;52.382;5.270;2022-12-20T07:39:13;100993.63;;;8.72;100.00
47054;BME280;32811;52.382;5.270;2022-12-20T07:41:39;101007.38;;;8.74;100.00
47054;BME280;32811;52.382;5.270;2022-12-20T07:44:07;101012.53;;;8.74;100.00
47054;BME280;32811;52.382;5.270;2022-12-20T07:46:34;101003.03;;;8.70;100.00
47054;BME280;32811;52.382;5.270;2022-12-20T07:49:01;100999.63;;;8.71;100.00
47054;BME280;32811;52.382;5.270;2022-12-20T07:51:34;101018.66;;;8.84;100.00
47054;BME280;32811;52.382;5.270;2022-12-20T07:56:33;101017.03;;;8.89;100.00
47054;BME280;32811;52.382;5.270;2022-12-20T07:59:08;101016.22;;;8.91;100.00
47054;BME280;32811;52.382;5.270;2022-12-20T08:01:37;101006.63;;;8.80;100.00
47054;BME280;32811;52.382;5.270;2022-12-20T08:04:10;101012.63;;;8.82;100.00
47054;BME280;32811;52.382;5.270;2022-12-20T08:06:38;101004.03;;;8.81;100.00
47054;BME280;32811;52.382;5.270;2022-12-20T08:09:08;101021.28;;;8.85;100.00
47054;BME280;32811;52.382;5.270;2022-12-20T08:11:39;101016.16;;;8.88;100.00
47054;BME280;32811;52.382;5.270;2022-12-20T08:14:08;101011.00;;;8.88;100.00
47054;BME280;32811;52.382;5.270;2022-12-20T08:16:35;100990.28;;;8.79;100.00
47054;BME280;32811;52.382;5.270;2022-12-20T08:19:02;101001.53;;;8.86;100.00
47054;BME280;32811;52.382;5.270;2022-12-20T08:21:29;100991.28;;;8.87;100.00
47054;BME280;32811;52.382;5.270;2022-12-20T08:23:56;100999.78;;;8.83;100.00
47054;BME280;32811;52.382;5.270;2022-12-20T08:26:23;100986.00;;;8.78;100.00
47054;BME280;32811;52.382;5.270;2022-12-20T08:28:50;101002.31;;;8.79;100.00
47054;BME280;32811;52.382;5.270;2022-12-20T08:31:17;100994.53;;;8.77;100.00
47054;BME280;32811;52.382;5.270;2022-12-20T08:33:44;101011.84;;;8.86;100.00
47054;BME280;32811;52.382;5.270;2022-12-20T08:36:12;101018.72;;;8.87;100.00
47054;BME280;32811;52.382;5.270;2022-12-20T08:38:39;101019.50;;;8.81;100.00
47054;BME280;32811;52.382;5.270;2022-12-20T08:41:12;101016.88;;;8.78;100.00
47054;BME280;32811;52.382;5.270;2022-12-20T08:43:40;101023.88;;;8.88;100.00
47054;BME280;32811;52.382;5.270;2022-12-20T08:46:08;101013.50;;;8.82;100.00
47054;BME280;32811;52.382;5.270;2022-12-20T08:48:36;101017.72;;;8.77;100.00
47054;BME280;32811;52.382;5.270;2022-12-20T08:51:06;101017.69;;;8.74;100.00
47054;BME280;32811;52.382;5.270;2022-12-20T08:53:34;100999.50;;;8.63;100.00
47054;BME280;32811;52.382;5.270;2022-12-20T08:56:12;101007.22;;;8.62;100.00
47054;BME280;32811;52.382;5.270;2022-12-20T08:58:40;101004.66;;;8.62;100.00
47054;BME280;32811;52.382;5.270;2022-12-20T09:01:09;100997.78;;;8.64;100.00
47054;BME280;32811;52.382;5.270;2022-12-20T09:03:38;100995.19;;;8.61;100.00
47054;BME280;32811;52.382;5.270;2022-12-20T09:06:08;101002.94;;;8.62;100.00
47054;BME280;32811;52.382;5.270;2022-12-20T09:08:36;101009.75;;;8.60;100.00
47054;BME280;32811;52.382;5.270;2022-12-20T09:11:09;101012.34;;;8.60;100.00
47054;BME280;32811;52.382;5.270;2022-12-20T09:13:38;100996.75;;;8.52;100.00
47054;BME280;32811;52.382;5.270;2022-12-20T09:16:11;101003.69;;;8.57;100.00
47054;BME280;32811;52.382;5.270;2022-12-20T09:18:38;101001.94;;;8.54;100.00
47054;BME280;32811;52.382;5.270;2022-12-20T09:21:06;101009.75;;;8.60;100.00
47054;BME280;32811;52.382;5.270;2022-12-20T09:23:35;101005.44;;;8.59;100.00
47054;BME280;32811;52.382;5.270;2022-12-20T09:26:09;101002.81;;;8.56;100.00
47054;BME280;32811;52.382;5.270;2022-12-20T09:28:37;101002.78;;;8.55;100.00
47054;BME280;32811;52.382;5.270;2022-12-20T09:31:06;100988.13;;;8.47;100.00
47054;BME280;32811;52.382;5.270;2022-12-20T09:33:34;100998.41;;;8.47;100.00
47054;BME280;32811;52.382;5.270;2022-12-20T09:36:02;100994.13;;;8.48;100.00
47054;BME280;32811;52.382;5.270;2022-12-20T09:38:29;101001.06;;;8.54;100.00
47054;BME280;32811;52.382;5.270;2022-12-20T09:41:00;100992.41;;;8.47;100.00
47054;BME280;32811;52.382;5.270;2022-12-20T09:43:28;100990.63;;;8.43;100.00
47054;BME280;32811;52.382;5.270;2022-12-20T09:45:58;100988.13;;;8.47;100.00
47054;BME280;32811;52.382;5.270;2022-12-20T09:48:29;100988.19;;;8.52;100.00
47054;BME280;32811;52.382;5.270;2022-12-20T09:56:25;101007.88;;;8.50;100.00
47054;BME280;32811;52.382;5.270;2022-12-20T09:59:04;101018.22;;;8.53;100.00
47054;BME280;32811;52.382;5.270;2022-12-20T10:01:33;101012.19;;;8.52;100.00
47054;BME280;32811;52.382;5.270;2022-12-20T10:04:14;101010.47;;;8.51;100.00
47054;BME280;32811;52.382;5.270;2022-12-20T10:23:03;100998.88;;;8.78;100.00
47054;BME280;32811;52.382;5.270;2022-12-20T10:25:31;100991.19;;;8.80;100.00
47054;BME280;32811;52.382;5.270;2022-12-20T10:28:01;100993.81;;;8.84;100.00
47054;BME280;32811;52.382;5.270;2022-12-20T10:30:31;100986.81;;;8.77;100.00
47054;BME280;32811;52.382;5.270;2022-12-20T10:32:58;100998.06;;;8.84;100.00
47054;BME280;32811;52.382;5.270;2022-12-20T10:35:39;100985.25;;;8.88;100.00
47054;BME280;32811;52.382;5.270;2022-12-20T10:38:11;100977.47;;;8.82;100.00
47054;BME280;32811;52.382;5.270;2022-12-20T10:40:41;100978.38;;;8.86;100.00
47054;BME280;32811;52.382;5.270;2022-12-20T10:43:48;100972.31;;;8.81;100.00
47054;BME280;32811;52.382;5.270;2022-12-20T10:46:16;100961.19;;;8.83;100.00
47054;BME280;32811;52.382;5.270;2022-12-20T10:48:45;100971.44;;;8.82;100.00
47054;BME280;32811;52.382;5.270;2022-12-20T10:51:16;100974.03;;;8.82;100.00
47054;BME280;32811;52.382;5.270;2022-12-20T10:54:02;100956.03;;;8.83;100.00
47054;BME280;32811;52.382;5.270;2022-12-20T10:56:34;100958.66;;;8.86;100.00
47054;BME280;32811;52.382;5.270;2022-12-20T11:01:45;100962.03;;;8.84;100.00
47054;BME280;32811;52.382;5.270;2022-12-20T11:04:33;100956.88;;;8.84;100.00
47054;BME280;32811;52.382;5.270;2022-12-20T11:07:03;100962.13;;;8.90;100.00
47054;BME280;32811;52.382;5.270;2022-12-20T11:09:55;100967.34;;;8.93;100.00
47054;BME280;32811;52.382;5.270;2022-12-20T11:12:22;100965.53;;;8.87;100.00
47054;BME280;32811;52.382;5.270;2022-12-20T11:15:06;100959.50;;;8.85;100.00
47054;BME280;32811;52.382;5.270;2022-12-20T11:17:36;100966.44;;;8.92;100.00
47054;BME280;32811;52.382;5.270;2022-12-20T11:34:34;100952.75;;;8.95;100.00
47054;BME280;32811;52.382;5.270;2022-12-20T11:37:25;100939.81;;;8.90;100.00
47054;BME280;32811;52.382;5.270;2022-12-20T11:45:30;100937.22;;;8.87;100.00
47054;BME280;32811;52.382;5.270;2022-12-20T11:53:41;100950.19;;;8.93;100.00
47054;BME280;32811;52.382;5.270;2022-12-20T11:56:16;100950.22;;;9.00;100.00
47054;BME280;32811;52.382;5.270;2022-12-20T11:58:51;100943.34;;;8.97;100.00
47054;BME280;32811;52.382;5.270;2022-12-20T12:01:31;100945.00;;;8.92;100.00
47054;BME280;32811;52.382;5.270;2022-12-20T12:04:24;100953.56;;;8.91;100.00
47054;BME280;32811;52.382;5.270;2022-12-20T12:07:01;100935.53;;;8.89;100.00
47054;BME280;32811;52.382;5.270;2022-12-20T12:09:48;100933.72;;;8.84;100.00
47054;BME280;32811;52.382;5.270;2022-12-20T12:12:27;100951.09;;;8.99;100.00
47054;BME280;32811;52.382;5.270;2022-12-20T12:25:54;100955.31;;;8.93;100.00
47054;BME280;32811;52.382;5.270;2022-12-20T12:28:22;100950.19;;;8.93;100.00
47054;BME280;32811;52.382;5.270;2022-12-20T12:30:57;100919.06;;;8.77;100.00
47054;BME280;32811;52.382;5.270;2022-12-20T12:33:33;100949.31;;;8.94;100.00
47054;BME280;32811;52.382;5.270;2022-12-20T12:39:09;100950.13;;;8.89;100.00
47054;BME280;32811;52.382;5.270;2022-12-20T12:42:21;100945.84;;;8.91;100.00
47054;BME280;32811;52.382;5.270;2022-12-20T12:44:57;100937.97;;;8.82;100.00
47054;BME280;32811;52.382;5.270;2022-12-20T12:50:01;100951.81;;;8.88;100.00
47054;BME280;32811;52.382;5.270;2022-12-20T12:52:47;100953.59;;;8.94;100.00
47054;BME280;32811;52.382;5.270;2022-12-20T13:00:52;100946.75;;;8.94;100.00
47054;BME280;32811;52.382;5.270;2022-12-20T13:11:41;100942.34;;;8.84;100.00
47054;BME280;32811;52.382;5.270;2022-12-20T13:16:44;100945.84;;;8.92;100.00
47054;BME280;32811;52.382;5.270;2022-12-20T13:19:33;100922.59;;;8.85;100.00
47054;BME280;32811;52.382;5.270;2022-12-20T13:22:18;100941.56;;;8.91;100.00
47054;BME280;32811;52.382;5.270;2022-12-20T13:24:58;100919.13;;;8.80;100.00
47054;BME280;32811;52.382;5.270;2022-12-20T13:37:57;100950.97;;;8.89;100.00
47054;BME280;32811;52.382;5.270;2022-12-20T13:40:44;100932.00;;;8.83;100.00
47054;BME280;32811;52.382;5.270;2022-12-20T13:48:32;100933.78;;;8.88;100.00
47054;BME280;32811;52.382;5.270;2022-12-20T13:51:01;100934.66;;;8.87;100.00
47054;BME280;32811;52.382;5.270;2022-12-20T13:53:28;100909.63;;;8.76;100.00
47054;BME280;32811;52.382;5.270;2022-12-20T13:55:56;100879.31;;;8.55;100.00
47054;BME280;32811;52.382;5.270;2022-12-20T13:58:32;100933.84;;;8.91;100.00
47054;BME280;32811;52.382;5.270;2022-12-20T14:01:12;100934.66;;;8.89;100.00
47054;BME280;32811;52.382;5.270;2022-12-20T14:03:40;100928.59;;;8.85;100.00
47054;BME280;32811;52.382;5.270;2022-12-20T14:06:10;100938.06;;;8.88;100.00
47054;BME280;32811;52.382;5.270;2022-12-20T14:08:41;100937.19;;;8.86;100.00
47054;BME280;32811;52.382;5.270;2022-12-20T14:11:15;100922.44;;;8.71;100.00
47054;BME280;32811;52.382;5.270;2022-12-20T14:14:13;100937.19;;;8.86;100.00
47054;BME280;32811;52.382;5.270;2022-12-20T14:16:40;100938.88;;;8.82;100.00
47054;BME280;32811;52.382;5.270;2022-12-20T14:19:13;100942.19;;;8.75;100.00
47054;BME280;32811;52.382;5.270;2022-12-20T14:21:44;100879.16;;;8.44;100.00
47054;BME280;32811;52.382;5.270;2022-12-20T14:24:14;100926.75;;;8.75;100.00
47054;BME280;32811;52.382;5.270;2022-12-20T14:26:45;100939.75;;;8.84;100.00
47054;BME280;32811;52.382;5.270;2022-12-20T14:29:18;100948.41;;;8.89;100.00
47054;BME280;32811;52.382;5.270;2022-12-20T14:31:47;100957.13;;;9.01;100.00
47054;BME280;32811;52.382;5.270;2022-12-20T14:34:19;100954.38;;;8.88;100.00
47054;BME280;32811;52.382;5.270;2022-12-20T14:37:32;100941.59;;;8.93;100.00
47054;BME280;32811;52.382;5.270;2022-12-20T14:40:02;100940.72;;;8.91;100.00
47054;BME280;32811;52.382;5.270;2022-12-20T14:42:34;100940.59;;;8.83;100.00
47054;BME280;32811;52.382;5.270;2022-12-20T14:45:18;100945.75;;;8.83;100.00
47054;BME280;32811;52.382;5.270;2022-12-20T14:47:53;100932.75;;;8.74;100.00
47054;BME280;32811;52.382;5.270;2022-12-20T14:50:32;100949.16;;;8.84;100.00
47054;BME280;32811;52.382;5.270;2022-12-20T14:53:00;100936.22;;;8.76;100.00
47054;BME280;32811;52.382;5.270;2022-12-20T14:55:32;100947.41;;;8.78;100.00
47054;BME280;32811;52.382;5.270;2022-12-20T14:58:01;100918.03;;;8.64;100.00
47054;BME280;32811;52.382;5.270;2022-12-20T15:00:33;100923.38;;;8.79;100.00
47054;BME280;32811;52.382;5.270;2022-12-20T15:03:18;100932.06;;;8.87;100.00
47054;BME280;32811;52.382;5.270;2022-12-20T15:05:49;100904.56;;;8.83;100.00
47054;BME280;32811;52.382;5.270;2022-12-20T15:08:22;100914.03;;;8.84;100.00